createdAt,value
2018-05-14T00:00:21.284Z,92.30
2018-05-14T00:01:21.271Z,94.30
2018-05-14T00:02:21.266Z,95.40
2018-05-14T00:03:21.244Z,92.20
2018-05-14T00:04:21.229Z,91.90
2018-05-14T00:05:21.213Z,91.10
2018-05-14T00:06:21.209Z,90.10
2018-05-14T00:07:21.194Z,90.90
2018-05-14T00:08:21.172Z,91.80
2018-05-14T00:09:21.157Z,93.00
2018-05-14T00:10:21.144Z,94.10
2018-05-14T00:11:21.134Z,90.40
2018-05-14T00:12:21.135Z,93.60
2018-05-14T00:13:21.100Z,92.60
2018-05-14T00:14:21.084Z,91.80
2018-05-14T00:15:21.072Z,95.20
2018-05-14T00:16:21.057Z,92.90
2018-05-14T00:17:21.043Z,92.30
2018-05-14T00:18:21.030Z,94.40
2018-05-14T00:19:21.014Z,93.80
2018-05-14T00:20:21.000Z,91.80
2018-05-14T00:21:20.991Z,88.30
2018-05-14T00:22:20.979Z,87.30
2018-05-14T00:23:20.958Z,87.10
2018-05-14T00:24:20.942Z,88.20
2018-05-14T00:25:20.943Z,87.70
2018-05-14T00:26:20.916Z,87.80
2018-05-14T00:27:20.909Z,86.20
2018-05-14T00:28:20.884Z,88.40
2018-05-14T00:29:20.872Z,89.60
2018-05-14T00:30:20.857Z,90.90
2018-05-14T00:31:20.850Z,91.50
2018-05-14T00:32:20.837Z,90.10
2018-05-14T00:33:20.820Z,91.80
2018-05-14T00:34:20.808Z,90.10
2018-05-14T00:35:20.787Z,90.50
2018-05-14T00:36:20.784Z,89.20
2018-05-14T00:37:20.759Z,86.60
2018-05-14T00:38:20.741Z,87.20
2018-05-14T00:39:20.727Z,87.70
2018-05-14T00:40:20.720Z,85.30
2018-05-14T00:41:20.698Z,81.20
2018-05-14T00:42:20.685Z,81.20
2018-05-14T00:43:20.671Z,80.20
2018-05-14T00:44:20.654Z,77.90
2018-05-14T00:45:20.649Z,78.80
2018-05-14T00:46:20.631Z,81.90
2018-05-14T00:47:20.621Z,81.10
2018-05-14T00:48:20.605Z,82.70
2018-05-14T00:49:20.630Z,80.10
2018-05-14T00:50:20.571Z,81.40
2018-05-14T00:51:20.563Z,78.20
2018-05-14T00:52:20.541Z,80.50
2018-05-14T00:53:20.530Z,83.40
2018-05-14T00:54:20.518Z,82.30
2018-05-14T00:55:20.496Z,81.50
2018-05-14T00:56:20.488Z,79.30
2018-05-14T00:57:20.467Z,78.40
2018-05-14T00:58:20.454Z,82.00
2018-05-14T00:59:20.440Z,79.90
2018-05-14T01:00:20.426Z,81.60
2018-05-14T01:01:20.411Z,83.90
2018-05-14T01:02:20.398Z,84.20
2018-05-14T01:03:20.381Z,82.70
2018-05-14T01:04:20.367Z,86.30
2018-05-14T01:05:20.354Z,82.60
2018-05-14T01:06:20.342Z,85.20
2018-05-14T01:07:20.328Z,85.60
2018-05-14T01:08:20.308Z,86.70
2018-05-14T01:09:20.299Z,83.20
2018-05-14T01:10:20.287Z,85.80
2018-05-14T01:11:20.265Z,83.70
2018-05-14T01:12:20.251Z,82.30
2018-05-14T01:13:20.246Z,82.30
2018-05-14T01:14:20.230Z,79.20
2018-05-14T01:15:20.210Z,78.50
2018-05-14T01:16:20.192Z,72.50
2018-05-14T01:17:20.178Z,76.90
2018-05-14T01:18:20.166Z,76.40
2018-05-14T01:19:20.149Z,73.40
2018-05-14T01:20:20.139Z,78.40
2018-05-14T01:21:20.119Z,76.40
2018-05-14T01:22:20.109Z,77.50
2018-05-14T01:23:20.101Z,79.70
2018-05-14T01:24:20.077Z,74.60
2018-05-14T01:25:20.065Z,78.70
2018-05-14T01:26:20.052Z,77.80
2018-05-14T01:27:20.033Z,74.80
2018-05-14T01:28:20.019Z,72.10
2018-05-14T01:29:20.010Z,68.80
2018-05-14T01:30:19.991Z,70.60
2018-05-14T01:31:19.984Z,71.40
2018-05-14T01:32:19.963Z,70.60
2018-05-14T01:33:19.958Z,73.30
2018-05-14T01:34:19.942Z,71.70
2018-05-14T01:35:19.919Z,70.90
2018-05-14T01:36:19.915Z,69.40
2018-05-14T01:37:19.890Z,69.40
2018-05-14T01:38:19.874Z,67.00
2018-05-14T01:39:19.867Z,63.60
2018-05-14T01:40:19.845Z,62.80
2018-05-14T01:41:19.832Z,63.40
2018-05-14T01:42:19.817Z,65.40
2018-05-14T01:43:19.803Z,64.50
2018-05-14T01:44:19.799Z,66.00
2018-05-14T01:45:19.771Z,67.30
2018-05-14T01:46:19.761Z,65.50
2018-05-14T01:47:19.742Z,65.80
2018-05-14T01:48:19.729Z,66.40
2018-05-14T01:49:19.720Z,64.70
2018-05-14T01:50:19.701Z,65.70
2018-05-14T01:51:19.694Z,63.40
2018-05-14T01:52:19.670Z,65.60
2018-05-14T01:53:19.658Z,67.40
2018-05-14T01:54:19.642Z,65.80
2018-05-14T01:55:19.629Z,67.80
2018-05-14T01:56:19.618Z,66.70
2018-05-14T01:57:19.600Z,66.20
2018-05-14T01:58:19.588Z,66.20
2018-05-14T01:59:19.572Z,67.60
2018-05-14T02:00:19.608Z,68.00
2018-05-14T02:01:19.541Z,65.50
2018-05-14T02:02:19.559Z,65.50
2018-05-14T02:03:19.515Z,68.50
2018-05-14T02:04:19.496Z,66.50
2018-05-14T02:05:19.489Z,65.60
2018-05-14T02:06:19.469Z,66.50
2018-05-14T02:07:19.466Z,67.80
2018-05-14T02:08:19.440Z,64.10
2018-05-14T02:09:19.428Z,62.70
2018-05-14T02:10:19.409Z,63.90
2018-05-14T02:11:19.398Z,64.40
2018-05-14T02:12:19.387Z,62.60
2018-05-14T02:13:19.367Z,65.90
2018-05-14T02:14:19.352Z,64.40
2018-05-14T02:15:19.343Z,65.00
2018-05-14T02:16:19.326Z,64.00
2018-05-14T02:17:19.310Z,63.10
2018-05-14T02:18:19.298Z,61.70
2018-05-14T02:19:19.279Z,64.20
2018-05-14T02:20:19.267Z,63.10
2018-05-14T02:21:19.255Z,62.60
2018-05-14T02:22:19.237Z,64.20
2018-05-14T02:23:19.223Z,60.00
2018-05-14T02:24:19.209Z,61.40
2018-05-14T02:25:19.195Z,58.00
2018-05-14T02:26:19.187Z,59.70
2018-05-14T02:27:19.165Z,56.80
2018-05-14T02:28:19.150Z,59.90
2018-05-14T02:29:19.149Z,61.80
2018-05-14T02:30:19.121Z,60.10
2018-05-14T02:31:19.119Z,59.20
2018-05-14T02:32:19.092Z,58.40
2018-05-14T02:33:19.081Z,58.50
2018-05-14T02:34:19.063Z,59.60
2018-05-14T02:35:19.051Z,60.20
2018-05-14T02:36:19.035Z,58.50
2018-05-14T02:37:19.020Z,59.60
2018-05-14T02:38:19.006Z,58.20
2018-05-14T02:39:18.991Z,60.30
2018-05-14T02:40:18.978Z,60.00
2018-05-14T02:41:18.961Z,59.20
2018-05-14T02:42:18.948Z,60.00
2018-05-14T02:43:18.983Z,60.80
2018-05-14T02:44:18.922Z,61.20
2018-05-14T02:45:18.904Z,61.60
2018-05-14T02:46:18.891Z,60.60
2018-05-14T02:47:18.888Z,60.20
2018-05-14T02:48:18.861Z,57.50
2018-05-14T02:49:18.930Z,58.70
2018-05-14T02:50:18.831Z,61.00
2018-05-14T02:51:18.826Z,58.10
2018-05-14T02:52:18.804Z,58.90
2018-05-14T02:53:18.787Z,59.70
2018-05-14T02:54:18.783Z,57.30
2018-05-14T02:55:18.759Z,58.70
2018-05-14T02:56:18.743Z,59.40
2018-05-14T02:57:18.731Z,59.60
2018-05-14T02:58:18.716Z,58.80
2018-05-14T02:59:18.701Z,59.40
2018-05-14T03:00:18.687Z,58.20
2018-05-14T03:01:18.673Z,59.40
2018-05-14T03:02:18.658Z,60.10
2018-05-14T03:03:18.651Z,59.30
2018-05-14T03:04:18.628Z,60.80
2018-05-14T03:05:18.614Z,56.00
2018-05-14T03:06:18.600Z,54.90
2018-05-14T03:07:18.586Z,56.00
2018-05-14T03:08:18.568Z,55.30
2018-05-14T03:09:18.555Z,55.20
2018-05-14T03:10:18.547Z,55.60
2018-05-14T03:11:18.529Z,56.30
2018-05-14T03:12:18.511Z,56.50
2018-05-14T03:13:18.497Z,55.00
2018-05-14T03:14:18.482Z,56.90
2018-05-14T03:15:18.473Z,57.10
2018-05-14T03:16:18.466Z,57.50
2018-05-14T03:17:18.591Z,57.60
2018-05-14T03:18:18.424Z,59.30
2018-05-14T03:19:18.410Z,57.50
2018-05-14T03:20:18.395Z,57.30
2018-05-14T03:21:18.380Z,57.10
2018-05-14T03:22:18.364Z,59.60
2018-05-14T03:23:18.350Z,60.00
2018-05-14T03:24:18.334Z,59.70
2018-05-14T03:25:18.323Z,59.10
2018-05-14T03:26:18.317Z,57.20
2018-05-14T03:27:18.340Z,57.80
2018-05-14T03:28:18.278Z,56.90
2018-05-14T03:29:18.264Z,58.00
2018-05-14T03:30:18.254Z,55.60
2018-05-14T03:31:18.235Z,55.70
2018-05-14T03:32:18.219Z,58.00
2018-05-14T03:33:18.206Z,57.80
2018-05-14T03:34:18.190Z,55.90
2018-05-14T03:35:18.179Z,56.40
2018-05-14T03:36:18.161Z,57.40
2018-05-14T03:37:18.155Z,57.80
2018-05-14T03:38:18.132Z,54.80
2018-05-14T03:39:18.118Z,57.90
2018-05-14T03:40:18.101Z,56.90
2018-05-14T03:41:18.087Z,56.30
2018-05-14T03:42:18.074Z,56.30
2018-05-14T03:43:18.060Z,56.60
2018-05-14T03:44:18.044Z,56.50
2018-05-14T03:45:18.029Z,55.30
2018-05-14T03:46:18.017Z,57.50
2018-05-14T03:47:18.002Z,59.80
2018-05-14T03:48:17.985Z,58.60
2018-05-14T03:49:17.971Z,59.10
2018-05-14T03:50:17.956Z,56.90
2018-05-14T03:51:17.942Z,56.80
2018-05-14T03:52:18.007Z,54.20
2018-05-14T03:53:17.912Z,59.00
2018-05-14T03:54:17.898Z,58.60
2018-05-14T03:55:17.936Z,56.90
2018-05-14T03:56:17.871Z,56.10
2018-05-14T03:57:17.854Z,56.50
2018-05-14T03:58:17.838Z,56.10
2018-05-14T03:59:17.827Z,57.60
2018-05-14T04:00:17.809Z,55.80
2018-05-14T04:01:17.795Z,57.60
2018-05-14T04:02:17.785Z,56.00
2018-05-14T04:03:17.783Z,57.80
2018-05-14T04:04:17.752Z,58.30
2018-05-14T04:05:17.746Z,55.60
2018-05-14T04:06:17.725Z,55.90
2018-05-14T04:07:17.708Z,55.60
2018-05-14T04:08:17.694Z,56.10
2018-05-14T04:09:17.677Z,56.40
2018-05-14T04:10:17.663Z,54.80
2018-05-14T04:11:17.652Z,55.30
2018-05-14T04:12:17.639Z,53.80
2018-05-14T04:13:17.621Z,54.20
2018-05-14T04:14:17.606Z,55.60
2018-05-14T04:15:17.595Z,56.50
2018-05-14T04:16:17.585Z,54.40
2018-05-14T04:17:17.564Z,54.90
2018-05-14T04:18:17.548Z,53.80
2018-05-14T04:19:17.542Z,54.20
2018-05-14T04:20:17.518Z,55.00
2018-05-14T04:21:17.505Z,55.00
2018-05-14T04:22:17.489Z,55.80
2018-05-14T04:23:17.476Z,53.90
2018-05-14T04:24:17.460Z,54.50
2018-05-14T04:25:17.446Z,56.20
2018-05-14T04:26:17.439Z,54.70
2018-05-14T04:27:17.417Z,54.20
2018-05-14T04:28:17.405Z,56.20
2018-05-14T04:29:17.384Z,55.60
2018-05-14T04:30:17.415Z,55.20
2018-05-14T04:31:17.357Z,54.40
2018-05-14T04:32:17.341Z,56.20
2018-05-14T04:33:17.329Z,55.30
2018-05-14T04:34:17.312Z,54.00
2018-05-14T04:35:17.348Z,57.00
2018-05-14T04:36:17.284Z,54.70
2018-05-14T04:37:17.269Z,52.00
2018-05-14T04:38:17.261Z,51.30
2018-05-14T04:39:17.241Z,52.90
2018-05-14T04:40:17.228Z,50.40
2018-05-14T04:41:17.211Z,53.40
2018-05-14T04:42:17.200Z,54.50
2018-05-14T04:43:17.183Z,51.90
2018-05-14T04:44:17.167Z,49.70
2018-05-14T04:45:17.153Z,52.60
2018-05-14T04:46:17.139Z,52.50
2018-05-14T04:47:17.124Z,51.40
2018-05-14T04:48:17.109Z,50.60
2018-05-14T04:49:17.095Z,51.60
2018-05-14T04:50:17.080Z,48.80
2018-05-14T04:51:17.068Z,50.40
2018-05-14T04:52:17.049Z,52.50
2018-05-14T04:53:17.037Z,55.30
2018-05-14T04:54:17.024Z,54.00
2018-05-14T04:55:17.008Z,55.90
2018-05-14T04:56:16.994Z,53.60
2018-05-14T04:57:16.977Z,53.60
2018-05-14T04:58:16.968Z,53.90
2018-05-14T04:59:16.977Z,52.80
2018-05-14T05:00:16.937Z,53.50
2018-05-14T05:01:16.920Z,55.30
2018-05-14T05:02:16.913Z,54.40
2018-05-14T05:03:16.890Z,53.90
2018-05-14T05:04:16.875Z,55.10
2018-05-14T05:05:16.860Z,53.30
2018-05-14T05:06:16.845Z,51.90
2018-05-14T05:07:16.831Z,52.80
2018-05-14T05:08:16.818Z,50.80
2018-05-14T05:09:16.808Z,53.40
2018-05-14T05:10:16.842Z,51.40
2018-05-14T05:11:16.780Z,50.50
2018-05-14T05:12:16.764Z,50.60
2018-05-14T05:13:16.746Z,50.30
2018-05-14T05:14:16.739Z,48.70
2018-05-14T05:15:16.722Z,50.80
2018-05-14T05:16:16.702Z,49.90
2018-05-14T05:17:16.733Z,51.80
2018-05-14T05:18:16.724Z,50.90
2018-05-14T05:19:16.670Z,51.20
2018-05-14T05:20:16.646Z,50.30
2018-05-14T05:21:16.631Z,49.60
2018-05-14T05:22:16.622Z,51.10
2018-05-14T05:23:16.606Z,52.60
2018-05-14T05:24:16.588Z,50.20
2018-05-14T05:25:16.577Z,51.00
2018-05-14T05:26:16.562Z,48.40
2018-05-14T05:27:16.548Z,50.90
2018-05-14T05:28:16.577Z,48.50
2018-05-14T05:29:16.520Z,49.20
2018-05-14T05:30:16.508Z,49.40
2018-05-14T05:31:16.493Z,50.90
2018-05-14T05:32:16.478Z,49.10
2018-05-14T05:33:16.463Z,49.50
2018-05-14T05:34:16.452Z,46.20
2018-05-14T05:35:16.444Z,47.40
2018-05-14T05:36:16.434Z,48.90
2018-05-14T05:37:16.408Z,47.00
2018-05-14T05:38:16.403Z,48.80
2018-05-14T05:39:16.385Z,47.70
2018-05-14T05:40:16.375Z,48.40
2018-05-14T05:41:16.353Z,48.10
2018-05-14T05:42:16.356Z,48.40
2018-05-14T05:43:16.329Z,48.00
2018-05-14T05:44:16.312Z,47.30
2018-05-14T05:45:16.382Z,46.90
2018-05-14T05:46:16.285Z,46.40
2018-05-14T05:47:16.271Z,48.70
2018-05-14T05:48:16.258Z,46.40
2018-05-14T05:49:16.244Z,45.50
2018-05-14T05:50:16.239Z,44.90
2018-05-14T05:51:16.223Z,42.00
2018-05-14T05:52:16.212Z,43.70
2018-05-14T05:53:16.200Z,43.80
2018-05-14T05:54:16.178Z,45.00
2018-05-14T05:55:16.167Z,42.40
2018-05-14T05:56:16.163Z,46.50
2018-05-14T05:57:16.139Z,44.20
2018-05-14T05:58:16.131Z,44.50
2018-05-14T05:59:16.115Z,42.70
2018-05-14T06:00:16.101Z,45.10
2018-05-14T06:01:16.163Z,44.40
2018-05-14T06:02:16.090Z,45.40
2018-05-14T06:03:16.064Z,45.10
2018-05-14T06:04:16.049Z,44.30
2018-05-14T06:05:16.045Z,44.90
2018-05-14T06:06:16.034Z,45.80
2018-05-14T06:07:16.013Z,44.70
2018-05-14T06:08:19.693Z,43.80
2018-05-14T06:09:15.987Z,44.00
2018-05-14T06:10:15.973Z,41.90
2018-05-14T06:11:15.963Z,44.00
2018-05-14T06:12:15.949Z,44.50
2018-05-14T06:13:15.945Z,43.80
2018-05-14T06:14:15.934Z,43.80
2018-05-14T06:15:15.917Z,44.50
2018-05-14T06:16:15.901Z,43.70
2018-05-14T06:17:15.894Z,42.90
2018-05-14T06:18:15.878Z,43.60
2018-05-14T06:19:15.868Z,43.00
2018-05-14T06:20:18.479Z,42.90
2018-05-14T06:21:16.049Z,41.20
2018-05-14T06:22:15.839Z,42.10
2018-05-14T06:23:15.825Z,40.30
2018-05-14T06:24:15.814Z,40.90
2018-05-14T06:25:15.820Z,40.20
2018-05-14T06:26:15.796Z,41.00
2018-05-14T06:27:15.795Z,40.20
2018-05-14T06:28:15.783Z,40.80
2018-05-14T06:29:15.773Z,41.40
2018-05-14T06:30:15.833Z,39.20
2018-05-14T06:31:15.754Z,40.30
2018-05-14T06:32:15.747Z,40.50
2018-05-14T06:33:15.739Z,38.90
2018-05-14T06:34:15.734Z,38.30
2018-05-14T06:35:15.720Z,40.40
2018-05-14T06:36:15.717Z,38.90
2018-05-14T06:37:15.707Z,39.70
2018-05-14T06:38:15.695Z,40.60
2018-05-14T06:39:15.685Z,39.90
2018-05-14T06:40:15.679Z,40.30
2018-05-14T06:41:15.668Z,39.80
2018-05-14T06:42:15.665Z,38.50
2018-05-14T06:43:15.653Z,37.50
2018-05-14T06:44:15.677Z,37.90
2018-05-14T06:45:15.634Z,38.90
2018-05-14T06:46:15.626Z,38.70
2018-05-14T06:47:15.619Z,39.20
2018-05-14T06:48:15.610Z,38.60
2018-05-14T06:49:15.615Z,37.70
2018-05-14T06:50:15.601Z,37.50
2018-05-14T06:51:15.589Z,36.10
2018-05-14T06:52:15.580Z,36.30
2018-05-14T06:53:15.576Z,36.30
2018-05-14T06:54:15.572Z,36.50
2018-05-14T06:55:15.664Z,36.40
2018-05-14T06:56:15.552Z,36.70
2018-05-14T06:57:15.554Z,38.60
2018-05-14T06:58:15.547Z,37.20
2018-05-14T06:59:15.535Z,37.90
2018-05-14T07:00:15.529Z,39.40
2018-05-14T07:01:15.741Z,37.30
2018-05-14T07:02:15.764Z,37.30
2018-05-14T07:03:15.545Z,37.80
2018-05-14T07:04:15.502Z,38.40
2018-05-14T07:05:15.496Z,39.00
2018-05-14T07:06:15.500Z,38.80
2018-05-14T07:07:15.563Z,38.10
2018-05-14T07:08:15.477Z,38.90
2018-05-14T07:09:15.474Z,37.10
2018-05-14T07:10:15.464Z,36.00
2018-05-14T07:11:15.464Z,35.50
2018-05-14T07:12:15.449Z,35.00
2018-05-14T07:13:15.443Z,34.10
2018-05-14T07:14:15.438Z,34.90
2018-05-14T07:15:15.433Z,35.60
2018-05-14T07:16:15.429Z,34.70
2018-05-14T07:17:18.044Z,35.00
2018-05-14T07:18:15.416Z,33.60
2018-05-14T07:19:15.488Z,35.70
2018-05-14T07:20:15.397Z,35.50
2018-05-14T07:21:15.389Z,35.70
2018-05-14T07:22:15.395Z,35.60
2018-05-14T07:23:15.377Z,36.30
2018-05-14T07:24:15.365Z,37.40
2018-05-14T07:25:15.359Z,36.90
2018-05-14T07:26:15.358Z,36.50
2018-05-14T07:27:15.344Z,35.80
2018-05-14T07:28:15.335Z,38.10
2018-05-14T07:29:15.327Z,37.60
2018-05-14T07:30:15.345Z,37.60
2018-05-14T07:31:15.313Z,36.30
2018-05-14T07:32:15.305Z,37.50
2018-05-14T07:33:15.300Z,36.20
2018-05-14T07:34:15.292Z,33.20
2018-05-14T07:35:15.283Z,30.90
2018-05-14T07:36:15.315Z,28.30
2018-05-14T07:37:15.271Z,29.60
2018-05-14T07:38:17.881Z,27.90
2018-05-14T07:39:15.252Z,28.60
2018-05-14T07:40:15.243Z,27.40
2018-05-14T07:41:15.243Z,25.90
2018-05-14T07:42:15.230Z,29.50
2018-05-14T07:43:15.221Z,29.10
2018-05-14T07:44:15.211Z,30.40
2018-05-14T07:45:15.209Z,29.70
2018-05-14T07:46:18.220Z,31.00
2018-05-14T07:47:15.187Z,31.00
2018-05-14T07:48:15.174Z,30.60
2018-05-14T07:49:15.166Z,30.20
2018-05-14T07:50:15.156Z,31.20
2018-05-14T07:51:15.172Z,28.40
2018-05-14T07:52:15.141Z,28.00
2018-05-14T07:53:15.127Z,26.20
2018-05-14T07:54:15.120Z,25.50
2018-05-14T07:55:15.113Z,26.50
2018-05-14T07:56:15.103Z,26.90
2018-05-14T07:57:15.092Z,27.70
2018-05-14T07:58:15.082Z,26.80
2018-05-14T07:59:15.073Z,29.00
2018-05-14T08:00:15.069Z,28.10
2018-05-14T08:01:15.063Z,29.80
2018-05-14T08:02:15.044Z,34.30
2018-05-14T08:03:15.035Z,29.50
2018-05-14T08:04:15.027Z,26.70
2018-05-14T08:05:15.016Z,26.90
2018-05-14T08:06:15.021Z,28.50
2018-05-14T08:07:15.005Z,26.90
2018-05-14T08:08:14.986Z,26.90
2018-05-14T08:09:14.980Z,25.80
2018-05-14T08:10:14.967Z,26.30
2018-05-14T08:11:14.957Z,25.40
2018-05-14T08:12:14.947Z,25.70
2018-05-14T08:13:14.936Z,25.60
2018-05-14T08:14:14.931Z,25.50
2018-05-14T08:15:14.918Z,26.80
2018-05-14T08:16:14.905Z,26.90
2018-05-14T08:17:14.897Z,26.40
2018-05-14T08:18:14.886Z,27.40
2018-05-14T08:19:14.884Z,27.40
2018-05-14T08:20:14.866Z,27.10
2018-05-14T08:21:14.857Z,26.40
2018-05-14T08:22:14.845Z,25.80
2018-05-14T08:23:14.835Z,29.30
2018-05-14T08:24:14.894Z,25.70
2018-05-14T08:25:14.814Z,26.70
2018-05-14T08:26:14.807Z,26.30
2018-05-14T08:27:14.802Z,25.80
2018-05-14T08:28:14.784Z,24.60
2018-05-14T08:29:14.773Z,25.20
2018-05-14T08:30:14.764Z,26.00
2018-05-14T08:31:14.757Z,27.50
2018-05-14T08:32:14.744Z,24.80
2018-05-14T08:33:14.736Z,25.60
2018-05-14T08:34:14.723Z,24.10
2018-05-14T08:35:14.712Z,23.30
2018-05-14T08:36:14.700Z,22.50
2018-05-14T08:37:14.798Z,22.90
2018-05-14T08:38:14.684Z,22.60
2018-05-14T08:39:14.683Z,23.20
2018-05-14T08:40:14.659Z,22.70
2018-05-14T08:41:14.650Z,23.80
2018-05-14T08:42:14.639Z,24.30
2018-05-14T08:43:14.630Z,23.50
2018-05-14T08:44:14.619Z,23.20
2018-05-14T08:45:14.608Z,22.80
2018-05-14T08:46:14.599Z,21.60
2018-05-14T08:47:14.590Z,22.80
2018-05-14T08:48:14.588Z,22.50
2018-05-14T08:49:14.567Z,23.10
2018-05-14T08:50:14.561Z,23.60
2018-05-14T08:51:14.569Z,22.90
2018-05-14T08:52:14.535Z,23.50
2018-05-14T08:53:14.535Z,23.00
2018-05-14T08:54:14.615Z,24.40
2018-05-14T08:55:14.522Z,22.60
2018-05-14T08:56:14.495Z,23.20
2018-05-14T08:57:14.485Z,23.30
2018-05-14T08:58:14.490Z,22.80
2018-05-14T08:59:14.464Z,21.40
2018-05-14T09:00:14.453Z,22.30
2018-05-14T09:01:14.447Z,22.70
2018-05-14T09:02:14.432Z,22.80
2018-05-14T09:03:14.422Z,22.80
2018-05-14T09:04:14.412Z,22.70
2018-05-14T09:05:14.405Z,21.80
2018-05-14T09:06:14.393Z,22.60
2018-05-14T09:07:14.382Z,21.50
2018-05-14T09:08:14.371Z,20.60
2018-05-14T09:09:14.363Z,21.10
2018-05-14T09:10:14.353Z,20.80
2018-05-14T09:11:14.343Z,20.60
2018-05-14T09:12:14.340Z,19.70
2018-05-14T09:13:14.322Z,19.30
2018-05-14T09:14:14.323Z,19.50
2018-05-14T09:15:14.304Z,20.30
2018-05-14T09:16:14.300Z,19.10
2018-05-14T09:17:14.282Z,19.50
2018-05-14T09:18:14.272Z,19.40
2018-05-14T09:19:14.311Z,19.30
2018-05-14T09:20:14.253Z,18.60
2018-05-14T09:21:14.244Z,17.60
2018-05-14T09:22:14.234Z,17.20
2018-05-14T09:23:14.226Z,18.30
2018-05-14T09:24:14.218Z,17.10
2018-05-14T09:25:14.206Z,18.00
2018-05-14T09:26:14.195Z,19.50
2018-05-14T09:27:14.201Z,18.60
2018-05-14T09:28:14.179Z,18.90
2018-05-14T09:29:14.168Z,18.20
2018-05-14T09:30:14.160Z,17.90
2018-05-14T09:31:14.228Z,16.70
2018-05-14T09:32:14.143Z,16.80
2018-05-14T09:33:14.184Z,15.60
2018-05-14T09:34:14.127Z,14.50
2018-05-14T09:35:14.137Z,14.40
2018-05-14T09:36:14.112Z,13.60
2018-05-14T09:37:14.110Z,14.00
2018-05-14T09:38:14.093Z,13.60
2018-05-14T09:39:14.090Z,14.30
2018-05-14T09:40:14.078Z,14.00
2018-05-14T09:41:14.077Z,14.20
2018-05-14T09:42:14.070Z,13.70
2018-05-14T09:43:14.070Z,12.80
2018-05-14T09:44:14.044Z,12.70
2018-05-14T09:45:14.069Z,12.70
2018-05-14T09:46:14.062Z,12.50
2018-05-14T09:47:14.025Z,12.20
2018-05-14T09:48:14.016Z,12.40
2018-05-14T09:49:14.017Z,13.10
2018-05-14T09:50:14.003Z,12.70
2018-05-14T09:51:14.000Z,12.20
2018-05-14T09:52:13.987Z,11.80
2018-05-14T09:53:13.980Z,11.40
2018-05-14T09:54:13.975Z,10.90
2018-05-14T09:55:13.986Z,11.90
2018-05-14T09:56:13.969Z,11.60
2018-05-14T09:57:14.030Z,11.90
2018-05-14T09:58:13.950Z,12.60
2018-05-14T09:59:13.943Z,11.60
2018-05-14T10:00:13.942Z,12.00
2018-05-14T10:01:13.948Z,11.30
2018-05-14T10:02:13.929Z,11.20
2018-05-14T10:03:13.923Z,11.00
2018-05-14T10:04:13.917Z,11.30
2018-05-14T10:05:13.916Z,11.00
2018-05-14T10:06:13.910Z,11.30
2018-05-14T10:07:13.906Z,11.20
2018-05-14T10:08:13.902Z,11.20
2018-05-14T10:09:13.898Z,11.60
2018-05-14T10:10:13.905Z,11.30
2018-05-14T10:11:13.894Z,10.90
2018-05-14T10:12:13.893Z,10.40
2018-05-14T10:13:13.899Z,10.30
2018-05-14T10:14:13.893Z,11.00
2018-05-14T10:15:13.890Z,10.50
2018-05-14T10:16:13.894Z,10.10
2018-05-14T10:17:13.892Z,10.10
2018-05-14T10:18:13.892Z,10.20
2018-05-14T10:19:13.894Z,10.50
2018-05-14T10:20:13.893Z,10.50
2018-05-14T10:21:13.902Z,9.80
2018-05-14T10:22:13.896Z,9.90
2018-05-14T10:23:14.049Z,9.80
2018-05-14T10:24:13.899Z,10.00
2018-05-14T10:25:13.903Z,9.70
2018-05-14T10:26:13.906Z,10.20
2018-05-14T10:27:13.909Z,9.90
2018-05-14T10:28:13.914Z,9.90
2018-05-14T10:29:13.918Z,8.80
2018-05-14T10:30:13.919Z,9.30
2018-05-14T10:31:13.938Z,8.50
2018-05-14T10:32:13.929Z,8.80
2018-05-14T10:33:13.933Z,8.50
2018-05-14T10:34:13.934Z,8.80
2018-05-14T10:35:13.941Z,8.20
2018-05-14T10:36:13.956Z,7.80
2018-05-14T10:37:13.950Z,8.10
2018-05-14T10:38:13.954Z,8.30
2018-05-14T10:39:13.971Z,8.60
2018-05-14T10:40:13.968Z,7.80
2018-05-14T10:41:13.978Z,8.10
2018-05-14T10:42:13.982Z,9.00
2018-05-14T10:43:13.980Z,8.10
2018-05-14T10:44:13.984Z,8.40
2018-05-14T10:45:13.990Z,8.40
2018-05-14T10:46:14.006Z,8.50
2018-05-14T10:47:14.001Z,7.90
2018-05-14T10:48:14.016Z,8.00
2018-05-14T10:49:14.012Z,7.90
2018-05-14T10:50:14.019Z,7.70
2018-05-14T10:51:14.023Z,7.90
2018-05-14T10:52:14.028Z,7.70
2018-05-14T10:53:14.035Z,7.30
2018-05-14T10:54:14.040Z,7.00
2018-05-14T10:55:14.046Z,7.50
2018-05-14T10:56:14.051Z,7.20
2018-05-14T10:57:14.058Z,7.10
2018-05-14T10:58:14.061Z,6.60
2018-05-14T10:59:14.076Z,6.60
2018-05-14T11:00:14.071Z,6.50
2018-05-14T11:01:14.081Z,6.80
2018-05-14T11:02:14.088Z,6.60
2018-05-14T11:03:14.093Z,6.80
2018-05-14T11:04:14.096Z,7.20
2018-05-14T11:05:14.108Z,6.70
2018-05-14T11:06:14.114Z,6.90
2018-05-14T11:07:14.114Z,6.30
2018-05-14T11:08:14.125Z,6.80
2018-05-14T11:09:14.124Z,6.70
2018-05-14T11:10:14.132Z,6.60
2018-05-14T11:11:14.138Z,6.00
2018-05-14T11:12:14.142Z,5.80
2018-05-14T11:13:14.150Z,6.50
2018-05-14T11:14:14.253Z,6.60
2018-05-14T11:15:14.152Z,6.40
2018-05-14T11:16:14.163Z,6.50
2018-05-14T11:17:14.170Z,6.30
2018-05-14T11:18:14.168Z,6.00
2018-05-14T11:19:14.172Z,5.70
2018-05-14T11:20:14.181Z,5.90
2018-05-14T11:21:14.186Z,5.20
2018-05-14T11:22:14.189Z,4.90
2018-05-14T11:23:14.192Z,5.50
2018-05-14T11:24:14.197Z,5.60
2018-05-14T11:25:14.206Z,5.60
2018-05-14T11:26:14.219Z,5.40
2018-05-14T11:27:14.220Z,5.50
2018-05-14T11:28:14.221Z,5.10
2018-05-14T11:29:14.222Z,5.00
2018-05-14T11:30:14.229Z,5.60
2018-05-14T11:31:14.232Z,5.10
2018-05-14T11:32:14.236Z,4.80
2018-05-14T11:33:14.241Z,5.00
2018-05-14T11:34:14.245Z,4.80
2018-05-14T11:35:14.250Z,4.90
2018-05-14T11:36:14.287Z,4.90
2018-05-14T11:37:14.367Z,4.80
2018-05-14T11:38:14.287Z,5.00
2018-05-14T11:39:14.265Z,4.50
2018-05-14T11:40:14.269Z,4.50
2018-05-14T11:41:14.272Z,4.50
2018-05-14T11:42:14.276Z,4.80
2018-05-14T11:43:14.278Z,4.80
2018-05-14T11:44:14.287Z,4.90
2018-05-14T11:45:14.290Z,5.10
2018-05-14T11:46:14.289Z,4.80
2018-05-14T11:47:14.288Z,4.90
2018-05-14T11:48:14.289Z,4.20
2018-05-14T11:49:14.301Z,4.30
2018-05-14T11:50:14.303Z,4.50
2018-05-14T11:51:14.306Z,4.20
2018-05-14T11:52:14.300Z,4.50
2018-05-14T11:53:14.299Z,4.30
2018-05-14T11:54:14.301Z,4.40
2018-05-14T11:55:14.294Z,4.50
2018-05-14T11:56:14.292Z,4.90
2018-05-14T11:57:14.291Z,4.40
2018-05-14T11:58:14.301Z,5.00
2018-05-14T11:59:14.287Z,5.40
2018-05-14T12:00:14.285Z,5.10
2018-05-14T12:01:14.286Z,5.30
2018-05-14T12:02:14.288Z,5.20
2018-05-14T12:03:14.361Z,5.60
2018-05-14T12:04:14.279Z,5.30
2018-05-14T12:05:14.269Z,5.80
2018-05-14T12:06:14.264Z,6.10
2018-05-14T12:07:14.270Z,5.50
2018-05-14T12:08:14.254Z,5.60
2018-05-14T12:09:14.250Z,5.50
2018-05-14T12:10:14.247Z,5.50
2018-05-14T12:11:14.242Z,5.70
2018-05-14T12:12:14.269Z,5.10
2018-05-14T12:13:14.234Z,5.20
2018-05-14T12:14:14.233Z,5.20
2018-05-14T12:15:14.221Z,5.80
2018-05-14T12:16:14.269Z,5.20
2018-05-14T12:17:14.208Z,5.50
2018-05-14T12:18:14.318Z,5.60
2018-05-14T12:19:14.197Z,5.60
2018-05-14T12:20:14.198Z,6.20
2018-05-14T12:21:14.183Z,6.10
2018-05-14T12:22:14.179Z,5.90
2018-05-14T12:23:14.172Z,5.60
2018-05-14T12:24:14.165Z,5.90
2018-05-14T12:25:14.159Z,6.10
2018-05-14T12:26:14.158Z,5.40
2018-05-14T12:27:14.155Z,5.80
2018-05-14T12:28:14.142Z,5.00
2018-05-14T12:29:14.131Z,5.40
2018-05-14T12:30:14.124Z,5.40
2018-05-14T12:31:14.120Z,5.90
2018-05-14T12:32:14.110Z,5.20
2018-05-14T12:33:14.111Z,5.50
2018-05-14T12:34:14.104Z,5.00
2018-05-14T12:35:14.090Z,5.30
2018-05-14T12:36:14.082Z,5.40
2018-05-14T12:37:14.076Z,5.30
2018-05-14T12:38:14.072Z,5.20
2018-05-14T12:39:14.066Z,5.10
2018-05-14T12:40:14.072Z,5.00
2018-05-14T12:41:14.047Z,5.60
2018-05-14T12:42:14.047Z,4.90
2018-05-14T12:43:14.048Z,5.10
2018-05-14T12:44:14.031Z,5.50
2018-05-14T12:45:14.068Z,5.50
2018-05-14T12:46:14.085Z,4.90
2018-05-14T12:47:14.002Z,5.20
2018-05-14T12:48:13.993Z,5.30
2018-05-14T12:49:13.987Z,5.60
2018-05-14T12:50:13.986Z,5.00
2018-05-14T12:51:13.971Z,5.20
2018-05-14T12:52:13.963Z,5.00
2018-05-14T12:53:13.956Z,5.30
2018-05-14T12:54:13.946Z,5.00
2018-05-14T12:55:13.945Z,4.80
2018-05-14T12:56:13.941Z,5.50
2018-05-14T12:57:14.082Z,5.00